Time;durP1;ratioP1;P1;durP2;ratioP2;P2;SDS_P1;SDS_P2;PMS_P1;PMS_P2;Temp;Humidity;BMP_temperature;BMP_pressure;BME280_temperature;BME280_humidity;BME280_pressure;Samples;Min_cycle;Max_cycle;Signal;HPM_P1;HPM_P2
2021/12/02 00:01:39;;;;;;;0.00;0.00;;;6.50;99.90;;;;;;4992516;28;20034;-68
2021/12/02 00:04:05;;;;;;;0.00;0.00;;;6.40;99.90;;;;;;4992994;28;20030;-67
2021/12/02 00:06:31;;;;;;;0.25;0.25;;;6.60;99.90;;;;;;4991534;28;20034;-67
2021/12/02 00:08:57;;;;;;;0.00;0.00;;;6.60;99.90;;;;;;4992473;28;20048;-67
2021/12/02 00:11:23;;;;;;;0.75;0.75;;;6.60;99.90;;;;;;4992831;28;20026;-68
2021/12/02 00:21:51;;;;;;;0.00;0.00;;;6.70;99.90;;;;;;4992428;28;20030;-68
2021/12/02 00:24:19;;;;;;;0.00;0.00;;;6.70;99.90;;;;;;4991234;28;20042;-68
2021/12/02 00:26:48;;;;;;;0.03;0.03;;;6.60;99.90;;;;;;4991121;28;20052;-68
2021/12/02 00:29:19;;;;;;;0.00;0.00;;;6.40;99.90;;;;;;4992456;28;20491;-68
2021/12/02 00:31:46;;;;;;;0.00;0.00;;;6.50;99.90;;;;;;4991483;28;20038;-68
2021/12/02 00:34:13;;;;;;;0.10;0.10;;;6.50;99.90;;;;;;4992320;28;20034;-68
2021/12/02 00:36:40;;;;;;;0.10;0.10;;;6.40;99.90;;;;;;4992668;28;20039;-68
2021/12/02 00:39:16;;;;;;;0.25;0.25;;;6.50;99.90;;;;;;4975030;28;20022;-68
2021/12/02 00:41:44;;;;;;;0.00;0.00;;;6.50;99.90;;;;;;4992223;28;20038;-68
2021/12/02 00:44:11;;;;;;;0.00;0.00;;;6.50;99.90;;;;;;4992151;28;20057;-68
2021/12/02 00:46:37;;;;;;;0.00;0.00;;;6.40;99.90;;;;;;4992087;28;20062;-68
2021/12/02 00:49:11;;;;;;;0.00;0.00;;;6.40;99.90;;;;;;4991988;28;20383;-68
2021/12/02 00:51:38;;;;;;;0.00;0.00;;;6.50;99.90;;;;;;4992348;28;20065;-68
2021/12/02 00:54:11;;;;;;;0.00;0.00;;;6.40;99.90;;;;;;4992070;28;20041;-68
2021/12/02 00:56:39;;;;;;;0.10;0.10;;;6.50;99.90;;;;;;4978920;28;20097;-68
2021/12/02 00:59:07;;;;;;;0.00;0.00;;;6.50;99.90;;;;;;4994729;28;20101;-68
2021/12/02 01:01:35;;;;;;;0.30;0.30;;;6.60;99.90;;;;;;4995587;28;20491;-68
2021/12/02 01:04:08;;;;;;;0.10;0.10;;;6.40;99.90;;;;;;4995486;28;20054;-68
2021/12/02 01:06:34;;;;;;;0.00;0.00;;;6.50;99.90;;;;;;4978764;28;20427;-68
2021/12/02 01:09:00;;;;;;;0.00;0.00;;;6.40;99.90;;;;;;4995424;28;20035;-68
2021/12/02 01:11:26;;;;;;;0.15;0.15;;;6.40;99.90;;;;;;4995552;28;20077;-68
2021/12/02 01:13:52;;;;;;;0.00;0.00;;;6.40;99.90;;;;;;4995550;28;20081;-68
2021/12/02 01:16:20;;;;;;;0.10;0.10;;;6.40;99.90;;;;;;4995699;28;20037;-68
2021/12/02 01:18:46;;;;;;;0.00;0.00;;;6.50;99.90;;;;;;4995216;28;20081;-68
2021/12/02 01:21:20;;;;;;;0.00;0.00;;;6.40;99.90;;;;;;4995657;28;20045;-68
2021/12/02 01:23:54;;;;;;;0.00;0.00;;;6.40;99.90;;;;;;4995055;28;20105;-68
2021/12/02 01:26:20;;;;;;;0.35;0.35;;;6.60;99.90;;;;;;4994161;28;20573;-68
2021/12/02 01:28:49;;;;;;;0.03;0.03;;;6.50;99.90;;;;;;4995367;28;20027;-68
2021/12/02 01:31:15;;;;;;;0.10;0.10;;;6.60;99.90;;;;;;4994004;28;20031;-68
2021/12/02 01:33:45;;;;;;;0.00;0.00;;;6.50;99.90;;;;;;4995340;28;20081;-68
2021/12/02 01:36:12;;;;;;;0.00;0.00;;;6.50;99.90;;;;;;4993826;28;20031;-68
2021/12/02 01:38:38;;;;;;;0.00;0.00;;;6.60;99.90;;;;;;4993921;28;20433;-68
2021/12/02 01:41:05;;;;;;;0.00;0.00;;;6.50;99.90;;;;;;4993861;28;20034;-68
2021/12/02 01:43:47;;;;;;;0.80;0.80;;;6.60;99.90;;;;;;4994980;28;20072;-68
2021/12/02 01:46:24;;;;;;;0.00;0.00;;;6.60;99.90;;;;;;4994877;28;20129;-67
2021/12/02 01:49:05;;;;;;;0.00;0.00;;;6.70;99.90;;;;;;4994891;28;20034;-68
2021/12/02 01:51:42;;;;;;;0.10;0.10;;;6.70;99.90;;;;;;4994767;28;20045;-68
2021/12/02 01:54:13;;;;;;;0.00;0.00;;;6.70;99.90;;;;;;4994928;28;20037;-68
2021/12/02 01:57:04;;;;;;;0.00;0.00;;;6.60;99.90;;;;;;4993796;28;20057;-68
2021/12/02 01:59:34;;;;;;;0.00;0.00;;;6.60;99.90;;;;;;4994655;28;20046;-68
2021/12/02 02:02:05;;;;;;;0.00;0.00;;;6.70;99.90;;;;;;4995080;28;20031;-68
2021/12/02 02:04:31;;;;;;;0.00;0.00;;;6.70;99.90;;;;;;4994616;28;20037;-68
2021/12/02 02:07:20;;;;;;;0.00;0.00;;;6.60;99.90;;;;;;4993059;28;20034;-68
2021/12/02 02:09:46;;;;;;;0.00;0.00;;;6.60;99.90;;;;;;4993448;28;20050;-68
2021/12/02 02:12:13;;;;;;;0.00;0.00;;;6.50;99.90;;;;;;4993167;28;20034;-68
2021/12/02 02:14:41;;;;;;;0.10;0.10;;;6.50;99.90;;;;;;4994578;28;20125;-68
2021/12/02 02:17:46;;;;;;;0.20;0.20;;;6.40;99.90;;;;;;4993251;28;20788;-68
2021/12/02 02:20:00;;;;;;;0.65;0.65;;;6.40;99.90;;;;;;4994628;28;20069;-68
2021/12/02 02:22:26;;;;;;;0.00;0.00;;;6.40;99.90;;;;;;4994209;28;20030;-68
2021/12/02 02:24:53;;;;;;;0.00;0.00;;;6.40;99.90;;;;;;4994080;28;20511;-67
2021/12/02 02:27:20;;;;;;;0.10;0.10;;;6.30;99.90;;;;;;4993109;28;20069;-68
2021/12/02 02:29:46;;;;;;;0.10;0.10;;;6.30;99.90;;;;;;4994093;28;20034;-68
2021/12/02 02:32:12;;;;;;;0.00;0.00;;;6.30;99.90;;;;;;4992589;28;20133;-68
2021/12/02 02:34:38;;;;;;;0.10;0.10;;;6.20;99.90;;;;;;4993938;28;20034;-68
2021/12/02 02:37:06;;;;;;;0.10;0.10;;;6.20;99.90;;;;;;4992722;28;20452;-68
2021/12/02 02:39:34;;;;;;;0.20;0.20;;;6.20;99.90;;;;;;4994023;28;20042;-67
2021/12/02 02:42:03;;;;;;;0.00;0.00;;;6.20;99.90;;;;;;4992404;28;20486;-68
2021/12/02 02:44:31;;;;;;;0.15;0.15;;;6.20;99.90;;;;;;4993724;28;20137;-67
2021/12/02 02:46:57;;;;;;;0.17;0.17;;;6.20;99.90;;;;;;4992321;28;20030;-68
2021/12/02 02:49:23;;;;;;;0.55;0.55;;;6.10;99.90;;;;;;4993669;28;20442;-68
2021/12/02 02:51:50;;;;;;;0.00;0.00;;;6.20;99.90;;;;;;4992488;28;20538;-68
2021/12/02 02:54:17;;;;;;;0.08;0.08;;;6.10;99.90;;;;;;4992374;28;20670;-67
2021/12/02 02:56:59;;;;;;;0.03;0.03;;;6.20;99.90;;;;;;4993604;28;20034;-68
2021/12/02 02:59:40;;;;;;;0.20;0.20;;;6.20;99.90;;;;;;4977390;28;20022;-68
2021/12/02 03:02:23;;;;;;;0.00;0.00;;;6.20;99.90;;;;;;4977303;28;20395;-68
2021/12/02 03:05:00;;;;;;;0.52;0.52;;;6.20;99.90;;;;;;4978318;28;20118;-68
2021/12/02 03:12:38;;;;;;;0.00;0.00;;;6.20;99.90;;;;;;4992076;28;20039;-68
2021/12/02 03:17:31;;;;;;;0.10;0.10;;;6.20;99.90;;;;;;4992791;28;20026;-67
2021/12/02 03:19:58;;;;;;;0.00;0.00;;;6.30;99.90;;;;;;4993207;28;20042;-67
2021/12/02 03:22:24;;;;;;;0.00;0.00;;;6.40;99.90;;;;;;4993480;28;20027;-68
2021/12/02 03:24:50;;;;;;;0.03;0.03;;;6.30;99.90;;;;;;4992285;28;20391;-68
2021/12/02 03:27:16;;;;;;;0.10;0.10;;;6.30;99.90;;;;;;4993164;28;20037;-69
2021/12/02 03:29:42;;;;;;;0.00;0.00;;;6.40;99.90;;;;;;4993137;28;20041;-68
2021/12/02 03:32:10;;;;;;;0.05;0.05;;;6.40;99.90;;;;;;4993084;28;20053;-68
2021/12/02 03:34:38;;;;;;;0.00;0.00;;;6.30;99.90;;;;;;4993299;28;20026;-68
2021/12/02 03:37:04;;;;;;;0.00;0.00;;;6.30;99.90;;;;;;4992916;28;20039;-68
2021/12/02 03:39:30;;;;;;;0.00;0.00;;;6.20;99.90;;;;;;4991656;28;20629;-68
2021/12/02 03:41:57;;;;;;;0.00;0.00;;;6.20;99.90;;;;;;4991757;28;20041;-68
2021/12/02 03:44:25;;;;;;;0.00;0.00;;;6.30;99.90;;;;;;4992963;28;20082;-68
2021/12/02 03:46:52;;;;;;;0.00;0.00;;;6.30;99.90;;;;;;4992969;28;20031;-68
2021/12/02 03:49:18;;;;;;;0.22;0.22;;;6.50;99.90;;;;;;4975676;28;20478;-69
2021/12/02 03:51:45;;;;;;;0.00;0.00;;;6.50;99.90;;;;;;4992957;28;20039;-68
2021/12/02 03:54:10;;;;;;;0.10;0.10;;;6.50;99.90;;;;;;4991160;28;20056;-68
2021/12/02 03:56:36;;;;;;;0.20;0.20;;;6.40;99.90;;;;;;4993145;28;20467;-69
2021/12/02 03:59:03;;;;;;;0.10;0.10;;;6.40;99.90;;;;;;4991531;28;20034;-68
2021/12/02 04:01:28;;;;;;;0.10;0.10;;;6.40;99.90;;;;;;4975664;28;20023;-68
2021/12/02 04:03:54;;;;;;;1.08;0.98;;;6.40;99.90;;;;;;4991472;28;20494;-68
2021/12/02 04:06:21;;;;;;;0.00;0.00;;;6.50;99.90;;;;;;4992752;28;20027;-68
2021/12/02 04:08:51;;;;;;;0.32;0.32;;;6.50;99.90;;;;;;4991743;28;20112;-68
2021/12/02 04:16:21;;;;;;;0.00;0.00;;;6.40;99.90;;;;;;4992914;28;20116;-69
2021/12/02 04:18:47;;;;;;;0.00;0.00;;;6.40;99.90;;;;;;4992523;28;20026;-68
2021/12/02 04:21:13;;;;;;;0.00;0.00;;;6.40;99.90;;;;;;4992589;28;20035;-69
2021/12/02 04:23:39;;;;;;;0.00;0.00;;;6.20;99.90;;;;;;4991512;28;20033;-68
2021/12/02 04:26:05;;;;;;;0.00;0.00;;;6.20;99.90;;;;;;4991591;28;20165;-69
2021/12/02 04:28:32;;;;;;;0.00;0.00;;;6.20;99.90;;;;;;4992878;28;20038;-69
2021/12/02 04:30:58;;;;;;;0.00;0.00;;;6.20;99.90;;;;;;4994914;28;20050;-71
2021/12/02 04:33:24;;;;;;;0.65;0.65;;;6.30;99.90;;;;;;4995377;28;20027;-68
2021/12/02 04:35:50;;;;;;;0.00;0.00;;;6.30;99.90;;;;;;4996633;28;20085;-68
2021/12/02 04:38:16;;;;;;;0.00;0.00;;;6.40;99.90;;;;;;4996516;28;20423;-68
2021/12/02 04:40:42;;;;;;;0.00;0.00;;;6.30;99.90;;;;;;4995152;28;20034;-68
2021/12/02 04:43:08;;;;;;;0.00;0.00;;;6.30;99.90;;;;;;4996193;28;20022;-68
2021/12/02 04:45:34;;;;;;;0.10;0.10;;;6.20;99.90;;;;;;4995903;28;20088;-69
2021/12/02 04:48:01;;;;;;;0.03;0.03;;;6.10;99.90;;;;;;4994768;28;20061;-68
2021/12/02 04:50:27;;;;;;;0.00;0.00;;;6.10;99.90;;;;;;4994934;28;20200;-68
2021/12/02 04:52:53;;;;;;;0.00;0.00;;;6.00;99.90;;;;;;4978486;28;20039;-68
2021/12/02 04:55:21;;;;;;;0.10;0.10;;;6.10;99.90;;;;;;4995865;28;20038;-68
2021/12/02 04:57:50;;;;;;;0.20;0.20;;;6.10;99.90;;;;;;4994642;28;20039;-71
2021/12/02 05:00:17;;;;;;;0.10;0.10;;;6.10;99.90;;;;;;4976607;28;20546;-67
2021/12/02 05:02:44;;;;;;;0.00;0.00;;;6.00;99.90;;;;;;4976485;28;20039;-69
2021/12/02 05:05:10;;;;;;;0.00;0.00;;;6.00;99.90;;;;;;4976265;28;20062;-69
2021/12/02 05:07:36;;;;;;;0.57;0.57;;;6.00;99.90;;;;;;4992698;28;20026;-69
2021/12/02 05:10:04;;;;;;;0.00;0.00;;;6.10;99.90;;;;;;4995512;28;20431;-68
2021/12/02 05:12:30;;;;;;;0.00;0.00;;;6.10;99.90;;;;;;4995350;28;20084;-69
2021/12/02 05:14:56;;;;;;;0.00;0.00;;;6.10;99.90;;;;;;4995549;28;20034;-69
2021/12/02 05:17:22;;;;;;;0.00;0.00;;;6.10;99.90;;;;;;4995827;28;20037;-68
2021/12/02 05:19:47;;;;;;;0.00;0.00;;;6.30;99.90;;;;;;4994185;28;20038;-67
2021/12/02 05:22:13;;;;;;;0.05;0.05;;;6.40;99.90;;;;;;4995356;28;20034;-68
2021/12/02 05:24:40;;;;;;;0.00;0.00;;;6.40;99.90;;;;;;4995460;28;20041;-71
2021/12/02 05:27:06;;;;;;;0.10;0.10;;;6.30;99.90;;;;;;4994465;28;20041;-72
2021/12/02 05:29:32;;;;;;;0.10;0.10;;;6.30;99.90;;;;;;4995261;28;20050;-72
2021/12/02 05:31:59;;;;;;;0.00;0.00;;;6.20;99.90;;;;;;4995314;28;20030;-70
2021/12/02 05:34:25;;;;;;;0.00;0.00;;;6.10;99.90;;;;;;4995230;28;20088;-67
2021/12/02 05:36:51;;;;;;;0.70;0.70;;;6.00;99.90;;;;;;4995376;28;20041;-68
2021/12/02 05:39:16;;;;;;;0.15;0.15;;;5.90;99.90;;;;;;4994615;28;20117;-68
2021/12/02 05:41:43;;;;;;;0.10;0.10;;;5.90;99.90;;;;;;4994981;28;20117;-69
2021/12/02 05:44:09;;;;;;;0.10;0.10;;;5.90;99.90;;;;;;4993707;28;20435;-69
2021/12/02 05:46:35;;;;;;;0.00;0.00;;;5.90;99.90;;;;;;4994023;28;20069;-69
2021/12/02 05:49:00;;;;;;;0.10;0.10;;;5.90;99.90;;;;;;4995367;28;20463;-69
2021/12/02 05:51:27;;;;;;;0.00;0.00;;;5.80;99.90;;;;;;4994859;28;20434;-68
2021/12/02 05:53:55;;;;;;;0.10;0.10;;;5.60;99.90;;;;;;4977186;28;20049;-67
2021/12/02 05:56:21;;;;;;;0.00;0.00;;;5.50;99.90;;;;;;4995040;28;20398;-68
2021/12/02 05:58:47;;;;;;;0.08;0.08;;;5.50;99.90;;;;;;4994675;28;20113;-68
2021/12/02 06:01:13;;;;;;;0.00;0.00;;;5.40;99.90;;;;;;4993238;28;20399;-68
2021/12/02 06:03:41;;;;;;;0.00;0.00;;;5.40;99.90;;;;;;4994878;28;20518;-69
2021/12/02 06:06:07;;;;;;;0.00;0.00;;;5.40;99.90;;;;;;4977784;28;20050;-68
2021/12/02 06:08:33;;;;;;;1.10;1.00;;;5.30;99.90;;;;;;4993512;28;20030;-67
2021/12/02 06:10:59;;;;;;;0.03;0.03;;;5.30;99.90;;;;;;4994989;28;20045;-67
2021/12/02 06:13:26;;;;;;;0.00;0.00;;;5.20;99.90;;;;;;4994276;28;20034;-68
2021/12/02 06:15:52;;;;;;;0.00;0.00;;;5.20;99.90;;;;;;4994170;28;20081;-68
2021/12/02 06:18:18;;;;;;;0.00;0.00;;;5.10;99.90;;;;;;4992924;28;20507;-68
2021/12/02 06:20:45;;;;;;;0.47;0.32;;;5.10;99.90;;;;;;4977078;28;20033;-69
2021/12/02 06:23:11;;;;;;;0.10;0.10;;;5.10;99.90;;;;;;4994309;28;20410;-69
2021/12/02 06:25:46;;;;;;;0.00;0.00;;;5.10;99.90;;;;;;4994131;28;20030;-69
2021/12/02 06:28:12;;;;;;;0.00;0.00;;;5.10;99.90;;;;;;4992996;28;20439;-72
2021/12/02 06:30:38;;;;;;;0.05;0.05;;;5.00;99.90;;;;;;4994061;28;20410;-70
2021/12/02 06:33:05;;;;;;;0.00;0.00;;;5.00;99.90;;;;;;4993857;28;20026;-69
2021/12/02 06:35:31;;;;;;;0.00;0.00;;;5.00;99.90;;;;;;4976613;28;20395;-70
2021/12/02 06:37:57;;;;;;;0.20;0.20;;;5.10;99.90;;;;;;4993735;28;20026;-70
2021/12/02 06:40:23;;;;;;;0.00;0.00;;;4.90;99.90;;;;;;4993995;28;20030;-70
2021/12/02 06:42:52;;;;;;;0.10;0.10;;;5.00;99.90;;;;;;4994196;28;20053;-70
2021/12/02 06:45:19;;;;;;;0.10;0.10;;;5.00;99.90;;;;;;4991948;28;20058;-70
2021/12/02 06:47:46;;;;;;;0.00;0.00;;;5.00;99.90;;;;;;4993742;28;20038;-70
2021/12/02 06:50:18;;;;;;;0.00;0.00;;;5.00;99.90;;;;;;4993515;28;20530;-70
2021/12/02 06:52:45;;;;;;;;;;;4.90;99.90;;;;;;4993135;28;20045;-70
2021/12/02 06:55:12;;;;;;;0.00;0.00;;;5.00;99.90;;;;;;4993326;28;20008;-70
2021/12/02 06:57:39;;;;;;;0.10;0.10;;;4.90;99.90;;;;;;4993522;28;20072;-72
2021/12/02 07:00:09;;;;;;;0.00;0.00;;;4.80;99.90;;;;;;4993476;28;20065;-70
2021/12/02 07:02:36;;;;;;;0.10;0.10;;;4.80;99.90;;;;;;4993447;28;20030;-70
2021/12/02 07:05:05;;;;;;;0.10;0.10;;;4.90;99.90;;;;;;4993899;28;20510;-70
2021/12/02 07:07:34;;;;;;;0.00;0.00;;;4.80;99.90;;;;;;4993321;28;20487;-71
2021/12/02 07:10:02;;;;;;;0.00;0.00;;;4.80;99.90;;;;;;4992313;28;20042;-70
2021/12/02 07:12:31;;;;;;;0.00;0.00;;;4.90;99.90;;;;;;4991652;28;20395;-70
2021/12/02 07:14:58;;;;;;;0.00;0.00;;;4.90;99.90;;;;;;4993360;28;20121;-70
2021/12/02 07:17:25;;;;;;;0.03;0.03;;;4.70;99.90;;;;;;4993367;28;20034;-69
2021/12/02 07:19:50;;;;;;;0.15;0.15;;;4.60;99.90;;;;;;4993546;28;20468;-70
2021/12/02 07:22:16;;;;;;;0.10;0.10;;;4.50;99.90;;;;;;4993044;28;20038;-70
2021/12/02 07:24:42;;;;;;;0.10;0.10;;;4.50;99.90;;;;;;4993284;28;20030;-69
2021/12/02 07:27:08;;;;;;;0.00;0.00;;;4.40;99.90;;;;;;4993235;28;20062;-69
2021/12/02 07:29:35;;;;;;;0.10;0.10;;;4.30;99.90;;;;;;4993120;28;20542;-70
2021/12/02 07:32:58;;;;;;;0.10;0.10;;;4.40;99.90;;;;;;4991247;28;20023;-70
2021/12/02 07:35:25;;;;;;;0.10;0.10;;;4.40;99.90;;;;;;4988210;28;20496;-70
2021/12/02 07:37:58;;;;;;;0.00;0.00;;;4.50;99.90;;;;;;4992066;28;20390;-70
2021/12/02 07:40:28;;;;;;;0.75;0.68;;;4.40;99.90;;;;;;4993083;28;20483;-69
2021/12/02 07:42:55;;;;;;;0.00;0.00;;;4.40;99.90;;;;;;4991996;28;20034;-69
2021/12/02 07:45:26;;;;;;;0.63;0.63;;;4.30;99.90;;;;;;4991511;28;20471;-70
2021/12/02 07:47:52;;;;;;;0.00;0.00;;;4.30;99.90;;;;;;4992023;28;20045;-70
2021/12/02 07:50:19;;;;;;;4.28;2.05;;;4.40;99.90;;;;;;4992813;28;20046;-71
2021/12/02 07:52:52;;;;;;;0.00;0.00;;;4.40;99.90;;;;;;4991743;28;20034;-70
2021/12/02 07:55:20;;;;;;;0.00;0.00;;;4.40;99.90;;;;;;4992932;28;20038;-69
2021/12/02 07:57:47;;;;;;;0.10;0.10;;;4.50;99.90;;;;;;4991757;28;20085;-70
2021/12/02 08:00:17;;;;;;;0.10;0.10;;;4.60;99.90;;;;;;5008381;28;20042;-71
2021/12/02 08:02:50;;;;;;;0.00;0.00;;;4.50;99.90;;;;;;5010593;28;20044;-71
2021/12/02 08:05:16;;;;;;;0.00;0.00;;;4.50;99.90;;;;;;5013862;28;20056;-70
2021/12/02 08:07:44;;;;;;;0.05;0.05;;;4.70;99.90;;;;;;5014000;28;20494;-69
2021/12/02 08:10:13;;;;;;;0.65;0.65;;;4.70;99.90;;;;;;5014011;28;20650;-69
2021/12/02 08:12:45;;;;;;;0.10;0.10;;;4.70;99.90;;;;;;5013870;28;20029;-69
2021/12/02 08:15:11;;;;;;;0.00;0.00;;;5.00;99.90;;;;;;5013772;28;20511;-69
2021/12/02 08:17:37;;;;;;;0.10;0.10;;;5.10;99.90;;;;;;5013532;28;20128;-69
2021/12/02 08:20:04;;;;;;;1.27;1.17;;;5.10;99.90;;;;;;5013666;28;20038;-69
2021/12/02 08:22:31;;;;;;;0.10;0.10;;;5.00;99.90;;;;;;5013816;28;20068;-69
2021/12/02 08:24:58;;;;;;;0.00;0.00;;;4.90;99.90;;;;;;5013565;28;20060;-70
2021/12/02 08:27:25;;;;;;;0.00;0.00;;;5.00;99.90;;;;;;5013775;28;20074;-70
2021/12/02 08:29:51;;;;;;;0.10;0.10;;;5.10;99.90;;;;;;5013663;28;20041;-68
2021/12/02 08:32:17;;;;;;;0.03;0.03;;;5.20;99.90;;;;;;5003442;28;20048;-69
2021/12/02 08:34:43;;;;;;;0.32;0.32;;;5.20;99.90;;;;;;5015982;28;20033;-69
2021/12/02 08:37:10;;;;;;;0.00;0.00;;;5.10;99.90;;;;;;5015734;28;20042;-69
2021/12/02 08:39:36;;;;;;;0.10;0.10;;;5.20;99.90;;;;;;5015824;28;20033;-69
2021/12/02 08:42:03;;;;;;;0.10;0.10;;;5.30;99.90;;;;;;5014446;28;20041;-69
2021/12/02 08:44:32;;;;;;;0.10;0.10;;;5.40;99.90;;;;;;5015474;28;20427;-70
2021/12/02 08:46:58;;;;;;;0.00;0.00;;;5.40;99.90;;;;;;5015583;28;20435;-69
2021/12/02 08:49:24;;;;;;;0.52;0.52;;;5.50;99.90;;;;;;5015599;28;20080;-69
2021/12/02 08:51:51;;;;;;;0.00;0.00;;;5.50;99.90;;;;;;5015525;28;20038;-69
2021/12/02 08:54:18;;;;;;;0.00;0.00;;;5.60;99.90;;;;;;5014224;28;20037;-69
2021/12/02 08:56:44;;;;;;;0.00;0.00;;;5.60;99.90;;;;;;5014463;28;20030;-69
2021/12/02 08:59:10;;;;;;;0.00;0.00;;;5.70;99.90;;;;;;5013933;28;20036;-70
2021/12/02 09:01:39;;;;;;;0.00;0.00;;;5.60;99.90;;;;;;5012981;28;20065;-68
2021/12/02 09:04:05;;;;;;;0.38;0.38;;;5.60;99.90;;;;;;4995256;28;20364;-69
2021/12/02 09:06:31;;;;;;;0.00;0.00;;;5.70;99.90;;;;;;4995359;28;20027;-69
2021/12/02 09:09:01;;;;;;;0.10;0.10;;;5.70;99.90;;;;;;4995506;28;20057;-70
2021/12/02 09:11:29;;;;;;;0.00;0.00;;;5.60;99.90;;;;;;4994352;28;20124;-70
2021/12/02 09:14:01;;;;;;;0.10;0.10;;;5.70;99.90;;;;;;4995334;28;20073;-69
2021/12/02 09:16:29;;;;;;;0.63;0.63;;;5.70;99.90;;;;;;4993595;28;20425;-70
2021/12/02 09:18:55;;;;;;;0.00;0.00;;;5.60;99.90;;;;;;4995305;28;20031;-71
2021/12/02 09:21:23;;;;;;;0.00;0.00;;;5.50;99.90;;;;;;4994050;28;20034;-70
2021/12/02 09:23:50;;;;;;;0.00;0.00;;;5.50;99.90;;;;;;4995360;28;20034;-71
2021/12/02 09:26:16;;;;;;;0.30;0.30;;;5.50;99.90;;;;;;5010400;28;20121;-71
2021/12/02 09:28:42;;;;;;;0.00;0.00;;;5.50;99.90;;;;;;4995477;28;20057;-71
2021/12/02 09:31:08;;;;;;;0.00;0.00;;;5.50;99.90;;;;;;4995218;28;20042;-70
2021/12/02 09:33:34;;;;;;;0.05;0.05;;;5.50;99.90;;;;;;5011990;28;20040;-71
2021/12/02 09:36:01;;;;;;;0.10;0.10;;;5.50;99.90;;;;;;5013741;28;20040;-69
2021/12/02 09:38:27;;;;;;;0.10;0.10;;;5.50;99.90;;;;;;5013844;28;20034;-71
2021/12/02 09:40:53;;;;;;;0.00;0.00;;;5.60;99.90;;;;;;5014654;28;20107;-71
2021/12/02 09:43:18;;;;;;;0.00;0.00;;;5.60;99.90;;;;;;5014275;28;20107;-70
2021/12/02 09:45:45;;;;;;;0.10;0.10;;;5.60;99.90;;;;;;5013673;28;20030;-70
2021/12/02 09:48:12;;;;;;;0.00;0.00;;;5.60;99.90;;;;;;5014133;28;20486;-71
2021/12/02 09:50:49;;;;;;;0.35;0.35;;;5.60;99.90;;;;;;5014245;28;20038;-71
2021/12/02 09:53:19;;;;;;;0.00;0.00;;;5.60;99.90;;;;;;5013089;28;20029;-69
2021/12/02 09:55:52;;;;;;;0.10;0.10;;;5.70;99.90;;;;;;5012958;28;20042;-70
2021/12/02 09:58:23;;;;;;;0.10;0.10;;;5.70;99.90;;;;;;5012894;28;20109;-70
2021/12/02 10:00:57;;;;;;;0.43;0.43;;;5.80;99.90;;;;;;4997638;28;20049;-71
2021/12/02 10:03:41;;;;;;;0.10;0.10;;;5.80;99.90;;;;;;4997496;28;20038;-70
2021/12/02 10:06:17;;;;;;;0.03;0.03;;;5.80;99.90;;;;;;5009571;28;20026;-70
2021/12/02 10:08:55;;;;;;;0.50;0.50;;;5.90;99.90;;;;;;4994616;28;20548;-70
2021/12/02 10:11:56;;;;;;;0.00;0.00;;;5.90;99.90;;;;;;4993653;28;20058;-70
2021/12/02 10:14:39;;;;;;;0.00;0.00;;;5.90;99.90;;;;;;4995065;28;20026;-70
2021/12/02 10:17:32;;;;;;;0.38;0.38;;;5.90;99.90;;;;;;4994547;28;20110;-70
2021/12/02 10:25:49;;;;;;;0.03;0.03;;;5.90;99.90;;;;;;4992970;28;20027;-70
2021/12/02 10:28:18;;;;;;;0.28;0.28;;;5.90;99.90;;;;;;4993436;28;20041;-70
2021/12/02 10:30:55;;;;;;;0.00;0.00;;;6.00;99.90;;;;;;4993173;28;20053;-70
2021/12/02 10:33:45;;;;;;;0.10;0.10;;;6.10;99.90;;;;;;4992610;28;20109;-70
2021/12/02 10:36:30;;;;;;;0.10;0.10;;;6.00;99.90;;;;;;4992535;28;20062;-70
2021/12/02 10:39:07;;;;;;;0.10;0.10;;;6.00;99.90;;;;;;4994263;28;20026;-71
2021/12/02 10:41:33;;;;;;;0.10;0.10;;;6.10;99.90;;;;;;4993485;28;20469;-73
2021/12/02 10:44:20;;;;;;;0.00;0.00;;;6.10;99.90;;;;;;4992241;28;20050;-72
2021/12/02 10:47:11;;;;;;;0.08;0.08;;;6.20;99.90;;;;;;4994040;28;20136;-71
2021/12/02 10:49:42;;;;;;;0.00;0.00;;;6.00;99.90;;;;;;4993475;28;20105;-69
2021/12/02 10:52:21;;;;;;;0.00;0.00;;;5.90;99.90;;;;;;4993718;28;20035;-73
2021/12/02 10:54:51;;;;;;;0.00;0.00;;;6.00;99.90;;;;;;4993430;28;20046;-73
2021/12/02 10:57:24;;;;;;;0.08;0.08;;;6.00;99.90;;;;;;4993434;28;20038;-72
2021/12/02 10:59:50;;;;;;;0.00;0.00;;;6.10;99.90;;;;;;4993571;28;20026;-72
2021/12/02 11:02:29;;;;;;;0.00;0.00;;;6.20;99.90;;;;;;4998260;28;20045;-72
2021/12/02 11:05:24;;;;;;;0.10;0.10;;;6.10;99.90;;;;;;5013084;28;20030;-71
2021/12/02 11:08:01;;;;;;;0.00;0.00;;;6.10;99.90;;;;;;5011806;28;20036;-69
2021/12/02 11:10:42;;;;;;;0.00;0.00;;;6.10;99.90;;;;;;5004622;28;20088;-70
2021/12/02 11:13:16;;;;;;;0.05;0.05;;;6.10;99.90;;;;;;4991187;28;20026;-70
2021/12/02 11:15:42;;;;;;;0.00;0.00;;;6.20;99.90;;;;;;4992128;28;20073;-72
2021/12/02 11:18:10;;;;;;;0.22;0.22;;;6.30;99.90;;;;;;4993052;28;20544;-70
2021/12/02 11:20:50;;;;;;;0.10;0.10;;;6.30;99.90;;;;;;4991956;28;20626;-69
2021/12/02 11:23:28;;;;;;;0.00;0.00;;;6.40;99.90;;;;;;4992142;28;20089;-69
2021/12/02 11:26:02;;;;;;;0.00;0.00;;;6.30;99.90;;;;;;4993204;28;20030;-69
2021/12/02 11:28:32;;;;;;;0.20;0.20;;;6.40;99.90;;;;;;4993315;28;20096;-69
2021/12/02 11:31:09;;;;;;;0.70;0.70;;;6.30;99.90;;;;;;4991695;28;20034;-69
2021/12/02 11:33:37;;;;;;;0.45;0.25;;;6.30;99.90;;;;;;4991662;28;20487;-70
2021/12/02 11:36:07;;;;;;;0.00;0.00;;;6.30;99.90;;;;;;4992124;28;20045;-65
2021/12/02 11:38:35;;;;;;;5.45;1.08;;;6.30;99.90;;;;;;4992774;28;20026;-68
2021/12/02 11:41:04;;;;;;;0.00;0.00;;;6.40;99.90;;;;;;4993113;28;20049;-67
2021/12/02 11:43:37;;;;;;;0.45;0.45;;;6.30;99.90;;;;;;4992519;28;20081;-74
2021/12/02 11:46:06;;;;;;;0.00;0.00;;;6.40;99.90;;;;;;4992908;28;20046;-69
2021/12/02 11:48:38;;;;;;;0.00;0.00;;;6.40;99.90;;;;;;4992867;28;20038;-67
2021/12/02 11:51:06;;;;;;;;;;;6.20;99.90;;;;;;4991918;28;20391;-67
2021/12/02 11:53:32;;;;;;;0.10;0.10;;;6.40;99.90;;;;;;4993127;28;19956;-67
2021/12/02 11:56:02;;;;;;;0.20;0.20;;;6.40;99.90;;;;;;4992676;28;20130;-67
2021/12/02 11:58:29;;;;;;;0.00;0.00;;;6.40;99.90;;;;;;4991707;28;20430;-67
2021/12/02 12:00:56;;;;;;;0.20;0.20;;;6.40;99.90;;;;;;4992881;28;20460;-68
2021/12/02 12:04:00;;;;;;;0.00;0.00;;;6.30;99.90;;;;;;5006705;28;20030;-68
2021/12/02 12:06:33;;;;;;;0.00;0.00;;;6.40;99.90;;;;;;5011912;28;20060;-69
2021/12/02 12:09:02;;;;;;;0.00;0.00;;;6.40;99.90;;;;;;5012461;28;20113;-69
2021/12/02 12:11:35;;;;;;;0.00;0.00;;;6.40;99.90;;;;;;5010905;28;20115;-68
2021/12/02 12:14:10;;;;;;;0.20;0.20;;;6.40;99.90;;;;;;5011300;28;20032;-67
2021/12/02 12:16:48;;;;;;;0.00;0.00;;;6.40;99.90;;;;;;4992055;28;20035;-68
2021/12/02 12:19:31;;;;;;;0.00;0.00;;;6.40;99.90;;;;;;4971870;28;20038;-67
2021/12/02 12:22:11;;;;;;;0.10;0.10;;;6.10;99.90;;;;;;5004501;28;20430;-67
2021/12/02 12:24:51;;;;;;;0.00;0.00;;;5.80;99.90;;;;;;4991261;28;20491;-68
2021/12/02 12:27:25;;;;;;;0.00;0.00;;;5.70;99.90;;;;;;4992376;28;20030;-68
2021/12/02 12:30:08;;;;;;;0.00;0.00;;;5.40;99.90;;;;;;4992537;28;20384;-68
2021/12/02 12:38:29;;;;;;;0.00;0.00;;;5.00;99.90;;;;;;5020790;28;20049;-68
2021/12/02 12:41:09;;;;;;;0.10;0.10;;;4.90;99.90;;;;;;4992288;28;20026;-68
2021/12/02 12:43:49;;;;;;;0.10;0.10;;;4.80;99.90;;;;;;4991363;28;20038;-68
2021/12/02 12:46:28;;;;;;;0.00;0.00;;;4.80;99.90;;;;;;4992272;28;20070;-68
2021/12/02 12:48:56;;;;;;;0.08;0.08;;;4.70;99.90;;;;;;4991142;28;20023;-67
2021/12/02 12:51:33;;;;;;;0.00;0.00;;;4.70;99.90;;;;;;4994368;28;20034;-68
2021/12/02 12:54:03;;;;;;;0.10;0.10;;;4.70;99.90;;;;;;4994720;28;20034;-68
2021/12/02 12:56:40;;;;;;;0.10;0.10;;;4.70;99.90;;;;;;4996052;28;20377;-68
2021/12/02 12:59:15;;;;;;;1.02;1.00;;;4.80;99.90;;;;;;4994560;28;20073;-68
2021/12/02 13:02:01;;;;;;;0.00;0.00;;;4.90;99.90;;;;;;4994646;28;20058;-68
2021/12/02 13:04:30;;;;;;;0.00;0.00;;;4.90;99.90;;;;;;4995585;28;20038;-68
2021/12/02 13:07:12;;;;;;;0.00;0.00;;;5.00;99.90;;;;;;4995474;28;20065;-68
2021/12/02 13:09:59;;;;;;;0.00;0.00;;;5.00;99.90;;;;;;4994096;28;20102;-68
2021/12/02 13:12:36;;;;;;;0.08;0.08;;;5.10;99.90;;;;;;4995691;28;20403;-68
2021/12/02 13:15:05;;;;;;;0.10;0.10;;;5.20;99.90;;;;;;4995513;28;20081;-68
2021/12/02 13:17:49;;;;;;;0.00;0.00;;;5.30;99.90;;;;;;4995118;28;20034;-68
2021/12/02 13:20:26;;;;;;;0.10;0.10;;;5.30;99.90;;;;;;4994877;28;20502;-68
2021/12/02 13:23:17;;;;;;;0.00;0.00;;;5.30;99.90;;;;;;4994190;28;20093;-68
2021/12/02 13:25:50;;;;;;;0.10;0.10;;;5.30;99.90;;;;;;4994203;28;20031;-68
2021/12/02 13:28:20;;;;;;;0.10;0.10;;;5.40;99.90;;;;;;4994947;28;20038;-67
2021/12/02 13:30:54;;;;;;;2.17;1.48;;;5.40;99.90;;;;;;4994365;28;20081;-68
2021/12/02 13:33:37;;;;;;;0.00;0.00;;;5.40;99.90;;;;;;4993795;28;20046;-68
2021/12/02 13:36:05;;;;;;;0.10;0.10;;;5.30;99.90;;;;;;4995160;28;20034;-67
2021/12/02 13:38:31;;;;;;;0.10;0.10;;;5.20;99.90;;;;;;5009931;28;20399;-68
2021/12/02 13:41:16;;;;;;;0.15;0.15;;;4.90;99.90;;;;;;4994685;28;20562;-68
2021/12/02 13:44:16;;;;;;;0.90;0.85;;;4.80;99.90;;;;;;4994745;28;20434;-68
2021/12/02 13:46:59;;;;;;;0.10;0.10;;;4.80;99.90;;;;;;4994879;28;20085;-68